sensor_id;sensor_type;location;lat;lon;timestamp;temperature;humidity
4505;DHT22;2265;48.794;9.520;2022-09-06T00:00:41;18.00;98.00
4505;DHT22;2265;48.794;9.520;2022-09-06T00:03:09;18.10;98.00
4505;DHT22;2265;48.794;9.520;2022-09-06T00:05:36;18.10;98.00
4505;DHT22;2265;48.794;9.520;2022-09-06T00:08:05;18.10;98.00
4505;DHT22;2265;48.794;9.520;2022-09-06T00:10:33;18.00;98.00
4505;DHT22;2265;48.794;9.520;2022-09-06T00:13:01;17.90;98.00
4505;DHT22;2265;48.794;9.520;2022-09-06T00:15:30;17.80;98.00
4505;DHT22;2265;48.794;9.520;2022-09-06T00:17:58;17.90;98.00
4505;DHT22;2265;48.794;9.520;2022-09-06T00:20:26;18.00;98.00
4505;DHT22;2265;48.794;9.520;2022-09-06T00:22:56;17.90;98.00
4505;DHT22;2265;48.794;9.520;2022-09-06T00:25:25;17.70;98.00
4505;DHT22;2265;48.794;9.520;2022-09-06T00:27:53;17.70;98.00
4505;DHT22;2265;48.794;9.520;2022-09-06T00:30:21;17.60;98.00
4505;DHT22;2265;48.794;9.520;2022-09-06T00:32:48;17.60;98.00
4505;DHT22;2265;48.794;9.520;2022-09-06T00:35:15;17.50;98.00
4505;DHT22;2265;48.794;9.520;2022-09-06T00:37:43;17.60;98.00
4505;DHT22;2265;48.794;9.520;2022-09-06T00:40:10;17.40;98.00
4505;DHT22;2265;48.794;9.520;2022-09-06T00:42:39;17.50;98.00
4505;DHT22;2265;48.794;9.520;2022-09-06T00:45:08;17.70;98.00
4505;DHT22;2265;48.794;9.520;2022-09-06T00:47:37;17.70;98.00
4505;DHT22;2265;48.794;9.520;2022-09-06T00:50:07;17.50;98.00
4505;DHT22;2265;48.794;9.520;2022-09-06T00:52:35;17.30;98.00
4505;DHT22;2265;48.794;9.520;2022-09-06T00:55:04;17.60;98.00
4505;DHT22;2265;48.794;9.520;2022-09-06T00:57:31;17.50;98.00
4505;DHT22;2265;48.794;9.520;2022-09-06T01:00:03;17.30;98.00
4505;DHT22;2265;48.794;9.520;2022-09-06T01:02:30;17.20;98.00
4505;DHT22;2265;48.794;9.520;2022-09-06T01:04:57;17.20;98.00
4505;DHT22;2265;48.794;9.520;2022-09-06T01:07:33;17.30;98.00
4505;DHT22;2265;48.794;9.520;2022-09-06T01:10:17;17.20;98.00
4505;DHT22;2265;48.794;9.520;2022-09-06T01:12:51;17.10;98.00
4505;DHT22;2265;48.794;9.520;2022-09-06T01:15:30;17.20;98.00
4505;DHT22;2265;48.794;9.520;2022-09-06T01:18:08;17.20;98.00
4505;DHT22;2265;48.794;9.520;2022-09-06T01:20:50;17.30;98.00
4505;DHT22;2265;48.794;9.520;2022-09-06T01:23:59;17.20;98.00
4505;DHT22;2265;48.794;9.520;2022-09-06T01:29:32;17.00;98.00
4505;DHT22;2265;48.794;9.520;2022-09-06T01:32:06;17.00;98.00
4505;DHT22;2265;48.794;9.520;2022-09-06T01:34:38;17.10;98.00
4505;DHT22;2265;48.794;9.520;2022-09-06T01:37:10;17.00;98.00
4505;DHT22;2265;48.794;9.520;2022-09-06T01:39:39;17.00;98.00
4505;DHT22;2265;48.794;9.520;2022-09-06T01:42:09;17.20;98.00
4505;DHT22;2265;48.794;9.520;2022-09-06T01:44:42;17.30;98.00
4505;DHT22;2265;48.794;9.520;2022-09-06T01:47:19;17.30;98.00
4505;DHT22;2265;48.794;9.520;2022-09-06T01:49:59;17.10;98.00
4505;DHT22;2265;48.794;9.520;2022-09-06T01:52:33;17.10;98.00
4505;DHT22;2265;48.794;9.520;2022-09-06T01:55:11;17.00;98.00
4505;DHT22;2265;48.794;9.520;2022-09-06T01:57:53;17.10;98.00
4505;DHT22;2265;48.794;9.520;2022-09-06T02:00:24;16.90;98.00
4505;DHT22;2265;48.794;9.520;2022-09-06T02:02:58;16.90;98.00
4505;DHT22;2265;48.794;9.520;2022-09-06T02:05:29;16.90;98.00
4505;DHT22;2265;48.794;9.520;2022-09-06T02:08:03;16.80;98.00
4505;DHT22;2265;48.794;9.520;2022-09-06T02:10:35;16.70;98.00
4505;DHT22;2265;48.794;9.520;2022-09-06T02:13:05;16.60;98.00
4505;DHT22;2265;48.794;9.520;2022-09-06T02:15:36;16.70;98.00
4505;DHT22;2265;48.794;9.520;2022-09-06T02:18:10;16.70;98.00
4505;DHT22;2265;48.794;9.520;2022-09-06T02:20:41;16.60;98.00
4505;DHT22;2265;48.794;9.520;2022-09-06T02:23:11;16.50;98.00
4505;DHT22;2265;48.794;9.520;2022-09-06T02:25:45;16.50;98.00
4505;DHT22;2265;48.794;9.520;2022-09-06T02:28:17;16.60;98.00
4505;DHT22;2265;48.794;9.520;2022-09-06T02:30:52;16.70;98.00
4505;DHT22;2265;48.794;9.520;2022-09-06T02:33:24;16.70;98.00
4505;DHT22;2265;48.794;9.520;2022-09-06T02:35:55;16.80;98.00
4505;DHT22;2265;48.794;9.520;2022-09-06T02:38:28;16.80;98.00
4505;DHT22;2265;48.794;9.520;2022-09-06T02:40:56;16.70;98.00
4505;DHT22;2265;48.794;9.520;2022-09-06T02:43:24;16.80;98.00
4505;DHT22;2265;48.794;9.520;2022-09-06T02:45:53;16.90;98.00
4505;DHT22;2265;48.794;9.520;2022-09-06T02:48:20;17.10;98.00
4505;DHT22;2265;48.794;9.520;2022-09-06T02:50:47;17.20;98.00
4505;DHT22;2265;48.794;9.520;2022-09-06T02:53:14;17.10;98.00
4505;DHT22;2265;48.794;9.520;2022-09-06T02:55:44;17.00;98.00
4505;DHT22;2265;48.794;9.520;2022-09-06T02:58:12;17.00;98.00
4505;DHT22;2265;48.794;9.520;2022-09-06T03:00:39;17.00;98.00
4505;DHT22;2265;48.794;9.520;2022-09-06T03:03:07;17.00;98.00
4505;DHT22;2265;48.794;9.520;2022-09-06T03:05:34;17.00;98.00
4505;DHT22;2265;48.794;9.520;2022-09-06T03:08:02;17.00;98.00
4505;DHT22;2265;48.794;9.520;2022-09-06T03:10:30;17.10;98.00
4505;DHT22;2265;48.794;9.520;2022-09-06T03:12:58;17.20;98.00
4505;DHT22;2265;48.794;9.520;2022-09-06T03:15:28;17.30;98.00
4505;DHT22;2265;48.794;9.520;2022-09-06T03:17:56;17.50;98.00
4505;DHT22;2265;48.794;9.520;2022-09-06T03:20:25;17.60;98.00
4505;DHT22;2265;48.794;9.520;2022-09-06T03:22:53;17.60;98.00
4505;DHT22;2265;48.794;9.520;2022-09-06T03:25:20;17.70;98.00
4505;DHT22;2265;48.794;9.520;2022-09-06T03:27:48;17.70;98.00
4505;DHT22;2265;48.794;9.520;2022-09-06T03:30:15;17.70;98.00
4505;DHT22;2265;48.794;9.520;2022-09-06T03:32:42;17.70;98.00
4505;DHT22;2265;48.794;9.520;2022-09-06T03:35:10;17.70;98.00
4505;DHT22;2265;48.794;9.520;2022-09-06T03:37:38;17.80;98.00
4505;DHT22;2265;48.794;9.520;2022-09-06T03:40:07;17.90;98.00
4505;DHT22;2265;48.794;9.520;2022-09-06T03:42:34;18.00;98.00
4505;DHT22;2265;48.794;9.520;2022-09-06T03:45:02;18.00;98.00
4505;DHT22;2265;48.794;9.520;2022-09-06T03:47:30;18.10;98.00
4505;DHT22;2265;48.794;9.520;2022-09-06T03:49:57;18.10;98.00
4505;DHT22;2265;48.794;9.520;2022-09-06T03:52:24;18.10;98.00
4505;DHT22;2265;48.794;9.520;2022-09-06T03:54:53;18.20;98.00
4505;DHT22;2265;48.794;9.520;2022-09-06T03:57:20;18.20;98.00
4505;DHT22;2265;48.794;9.520;2022-09-06T03:59:47;18.20;98.00
4505;DHT22;2265;48.794;9.520;2022-09-06T04:02:14;18.20;98.00
4505;DHT22;2265;48.794;9.520;2022-09-06T04:04:44;18.30;98.00
4505;DHT22;2265;48.794;9.520;2022-09-06T04:07:11;18.30;98.00
4505;DHT22;2265;48.794;9.520;2022-09-06T04:09:38;18.30;98.00
4505;DHT22;2265;48.794;9.520;2022-09-06T04:12:07;18.30;98.00
4505;DHT22;2265;48.794;9.520;2022-09-06T04:14:34;18.40;98.00
4505;DHT22;2265;48.794;9.520;2022-09-06T04:17:01;18.50;98.00
4505;DHT22;2265;48.794;9.520;2022-09-06T04:19:28;18.40;98.00
4505;DHT22;2265;48.794;9.520;2022-09-06T04:21:55;18.40;98.00
4505;DHT22;2265;48.794;9.520;2022-09-06T04:24:22;18.50;98.00
4505;DHT22;2265;48.794;9.520;2022-09-06T04:26:50;18.50;98.00
4505;DHT22;2265;48.794;9.520;2022-09-06T04:29:19;18.40;98.00
4505;DHT22;2265;48.794;9.520;2022-09-06T04:31:46;18.60;98.00
4505;DHT22;2265;48.794;9.520;2022-09-06T04:34:13;18.70;98.00
4505;DHT22;2265;48.794;9.520;2022-09-06T04:36:41;18.80;98.00
4505;DHT22;2265;48.794;9.520;2022-09-06T04:39:11;18.70;98.00
4505;DHT22;2265;48.794;9.520;2022-09-06T04:41:38;18.60;98.00
4505;DHT22;2265;48.794;9.520;2022-09-06T04:44:05;18.30;98.00
4505;DHT22;2265;48.794;9.520;2022-09-06T04:46:34;18.20;98.00
4505;DHT22;2265;48.794;9.520;2022-09-06T04:49:01;18.30;98.00
4505;DHT22;2265;48.794;9.520;2022-09-06T04:51:30;18.30;98.00
4505;DHT22;2265;48.794;9.520;2022-09-06T04:53:57;18.20;98.00
4505;DHT22;2265;48.794;9.520;2022-09-06T04:56:25;18.10;98.00
4505;DHT22;2265;48.794;9.520;2022-09-06T04:58:53;18.10;98.00
4505;DHT22;2265;48.794;9.520;2022-09-06T05:01:21;18.30;98.00
4505;DHT22;2265;48.794;9.520;2022-09-06T05:03:52;18.20;98.00
4505;DHT22;2265;48.794;9.520;2022-09-06T05:06:21;18.00;98.00
4505;DHT22;2265;48.794;9.520;2022-09-06T05:08:49;17.90;98.00
4505;DHT22;2265;48.794;9.520;2022-09-06T05:11:17;17.80;98.00
4505;DHT22;2265;48.794;9.520;2022-09-06T05:13:45;17.80;98.00
4505;DHT22;2265;48.794;9.520;2022-09-06T05:16:13;17.80;98.00
4505;DHT22;2265;48.794;9.520;2022-09-06T05:18:40;17.70;98.00
4505;DHT22;2265;48.794;9.520;2022-09-06T05:21:10;17.70;98.00
4505;DHT22;2265;48.794;9.520;2022-09-06T05:23:37;17.80;98.00
4505;DHT22;2265;48.794;9.520;2022-09-06T05:26:04;17.80;98.00
4505;DHT22;2265;48.794;9.520;2022-09-06T05:28:31;17.80;98.00
4505;DHT22;2265;48.794;9.520;2022-09-06T05:31:06;17.90;98.00
4505;DHT22;2265;48.794;9.520;2022-09-06T05:33:33;18.00;98.00
4505;DHT22;2265;48.794;9.520;2022-09-06T05:36:04;18.00;98.00
4505;DHT22;2265;48.794;9.520;2022-09-06T05:38:35;18.10;98.00
4505;DHT22;2265;48.794;9.520;2022-09-06T05:41:02;18.30;98.00
4505;DHT22;2265;48.794;9.520;2022-09-06T05:43:29;18.40;98.00
4505;DHT22;2265;48.794;9.520;2022-09-06T05:45:56;18.20;98.00
4505;DHT22;2265;48.794;9.520;2022-09-06T05:48:23;18.40;98.00
4505;DHT22;2265;48.794;9.520;2022-09-06T05:50:59;18.60;98.00
4505;DHT22;2265;48.794;9.520;2022-09-06T05:53:32;18.50;98.00
4505;DHT22;2265;48.794;9.520;2022-09-06T05:56:01;18.60;98.00
4505;DHT22;2265;48.794;9.520;2022-09-06T05:58:28;18.50;98.00
4505;DHT22;2265;48.794;9.520;2022-09-06T06:01:04;18.50;98.00
4505;DHT22;2265;48.794;9.520;2022-09-06T06:03:31;18.40;98.00
4505;DHT22;2265;48.794;9.520;2022-09-06T06:05:58;18.40;98.00
4505;DHT22;2265;48.794;9.520;2022-09-06T06:08:25;18.60;98.00
4505;DHT22;2265;48.794;9.520;2022-09-06T06:10:57;18.70;98.00
4505;DHT22;2265;48.794;9.520;2022-09-06T06:13:27;18.80;98.00
4505;DHT22;2265;48.794;9.520;2022-09-06T06:15:54;19.10;98.00
4505;DHT22;2265;48.794;9.520;2022-09-06T06:18:21;19.10;98.00
4505;DHT22;2265;48.794;9.520;2022-09-06T06:20:48;19.10;98.00
4505;DHT22;2265;48.794;9.520;2022-09-06T06:23:16;19.20;98.00
4505;DHT22;2265;48.794;9.520;2022-09-06T06:25:43;19.30;98.00
4505;DHT22;2265;48.794;9.520;2022-09-06T06:28:10;19.40;98.00
4505;DHT22;2265;48.794;9.520;2022-09-06T06:30:40;19.40;98.00
4505;DHT22;2265;48.794;9.520;2022-09-06T06:33:07;19.30;98.00
4505;DHT22;2265;48.794;9.520;2022-09-06T06:35:36;19.40;98.00
4505;DHT22;2265;48.794;9.520;2022-09-06T06:38:03;19.40;98.00
4505;DHT22;2265;48.794;9.520;2022-09-06T06:40:30;19.30;98.00
4505;DHT22;2265;48.794;9.520;2022-09-06T06:42:58;19.30;98.00
4505;DHT22;2265;48.794;9.520;2022-09-06T06:45:26;19.20;98.00
4505;DHT22;2265;48.794;9.520;2022-09-06T06:47:54;19.20;98.00
4505;DHT22;2265;48.794;9.520;2022-09-06T06:50:22;19.20;98.00
4505;DHT22;2265;48.794;9.520;2022-09-06T06:52:50;19.40;98.00
4505;DHT22;2265;48.794;9.520;2022-09-06T06:55:18;19.30;98.00
4505;DHT22;2265;48.794;9.520;2022-09-06T06:57:45;19.10;98.00
4505;DHT22;2265;48.794;9.520;2022-09-06T07:00:13;19.00;98.00
4505;DHT22;2265;48.794;9.520;2022-09-06T07:02:42;19.10;98.00
4505;DHT22;2265;48.794;9.520;2022-09-06T07:05:11;19.10;98.00
4505;DHT22;2265;48.794;9.520;2022-09-06T07:07:45;19.00;98.00
4505;DHT22;2265;48.794;9.520;2022-09-06T07:10:13;19.20;98.00
4505;DHT22;2265;48.794;9.520;2022-09-06T07:12:40;19.10;98.00
4505;DHT22;2265;48.794;9.520;2022-09-06T07:15:08;19.30;98.00
4505;DHT22;2265;48.794;9.520;2022-09-06T07:17:35;19.30;98.00
4505;DHT22;2265;48.794;9.520;2022-09-06T07:20:02;19.30;98.00
4505;DHT22;2265;48.794;9.520;2022-09-06T07:22:31;19.20;98.00
4505;DHT22;2265;48.794;9.520;2022-09-06T07:24:58;19.30;98.00
4505;DHT22;2265;48.794;9.520;2022-09-06T07:27:26;19.40;98.00
4505;DHT22;2265;48.794;9.520;2022-09-06T07:29:57;19.60;98.00
4505;DHT22;2265;48.794;9.520;2022-09-06T07:32:25;19.80;98.00
4505;DHT22;2265;48.794;9.520;2022-09-06T07:34:52;20.10;98.00
4505;DHT22;2265;48.794;9.520;2022-09-06T07:37:19;20.30;98.00
4505;DHT22;2265;48.794;9.520;2022-09-06T07:39:47;20.50;98.00
4505;DHT22;2265;48.794;9.520;2022-09-06T07:42:15;20.60;98.00
4505;DHT22;2265;48.794;9.520;2022-09-06T07:44:42;20.70;98.00
4505;DHT22;2265;48.794;9.520;2022-09-06T07:47:13;20.70;98.00
4505;DHT22;2265;48.794;9.520;2022-09-06T07:49:42;20.70;98.00
4505;DHT22;2265;48.794;9.520;2022-09-06T07:52:09;20.70;98.00
4505;DHT22;2265;48.794;9.520;2022-09-06T07:54:36;20.70;98.00
4505;DHT22;2265;48.794;9.520;2022-09-06T07:57:05;20.70;98.00
4505;DHT22;2265;48.794;9.520;2022-09-06T07:59:32;20.80;98.00
4505;DHT22;2265;48.794;9.520;2022-09-06T08:01:59;20.90;98.00
4505;DHT22;2265;48.794;9.520;2022-09-06T08:04:26;21.00;98.00
4505;DHT22;2265;48.794;9.520;2022-09-06T08:06:54;21.20;98.00
4505;DHT22;2265;48.794;9.520;2022-09-06T08:09:22;21.30;98.00
4505;DHT22;2265;48.794;9.520;2022-09-06T08:11:49;21.40;98.00
4505;DHT22;2265;48.794;9.520;2022-09-06T08:14:18;21.50;98.00
4505;DHT22;2265;48.794;9.520;2022-09-06T08:16:45;21.60;98.00
4505;DHT22;2265;48.794;9.520;2022-09-06T08:19:12;21.70;98.00
4505;DHT22;2265;48.794;9.520;2022-09-06T08:21:41;21.80;98.00
4505;DHT22;2265;48.794;9.520;2022-09-06T08:24:08;21.90;98.00
4505;DHT22;2265;48.794;9.520;2022-09-06T08:26:37;22.00;98.00
4505;DHT22;2265;48.794;9.520;2022-09-06T08:29:06;22.10;98.00
4505;DHT22;2265;48.794;9.520;2022-09-06T08:31:36;22.30;98.00
4505;DHT22;2265;48.794;9.520;2022-09-06T08:34:03;22.40;98.00
4505;DHT22;2265;48.794;9.520;2022-09-06T08:36:31;22.50;98.00
4505;DHT22;2265;48.794;9.520;2022-09-06T08:38:59;22.70;98.00
4505;DHT22;2265;48.794;9.520;2022-09-06T08:41:29;22.90;98.00
4505;DHT22;2265;48.794;9.520;2022-09-06T08:44:01;23.20;98.00
4505;DHT22;2265;48.794;9.520;2022-09-06T08:46:32;23.50;98.00
4505;DHT22;2265;48.794;9.520;2022-09-06T08:49:02;23.70;98.00
4505;DHT22;2265;48.794;9.520;2022-09-06T08:51:50;23.90;98.00
4505;DHT22;2265;48.794;9.520;2022-09-06T08:54:25;24.10;98.00
4505;DHT22;2265;48.794;9.520;2022-09-06T08:57:03;24.20;98.00
4505;DHT22;2265;48.794;9.520;2022-09-06T08:59:36;24.20;98.00
4505;DHT22;2265;48.794;9.520;2022-09-06T09:02:10;24.20;98.00
4505;DHT22;2265;48.794;9.520;2022-09-06T09:04:42;24.40;98.00
4505;DHT22;2265;48.794;9.520;2022-09-06T09:07:30;24.50;98.00
4505;DHT22;2265;48.794;9.520;2022-09-06T09:10:01;24.50;98.00
4505;DHT22;2265;48.794;9.520;2022-09-06T09:12:31;24.50;98.00
4505;DHT22;2265;48.794;9.520;2022-09-06T09:15:11;24.60;98.00
4505;DHT22;2265;48.794;9.520;2022-09-06T09:17:40;24.70;98.00
4505;DHT22;2265;48.794;9.520;2022-09-06T09:20:09;24.90;98.00
4505;DHT22;2265;48.794;9.520;2022-09-06T09:22:37;25.20;98.00
4505;DHT22;2265;48.794;9.520;2022-09-06T09:25:07;25.50;98.00
4505;DHT22;2265;48.794;9.520;2022-09-06T09:27:35;25.70;98.00
4505;DHT22;2265;48.794;9.520;2022-09-06T09:30:05;25.70;98.00
4505;DHT22;2265;48.794;9.520;2022-09-06T09:32:34;25.70;98.00
4505;DHT22;2265;48.794;9.520;2022-09-06T09:35:22;25.70;98.00
4505;DHT22;2265;48.794;9.520;2022-09-06T09:38:00;25.70;98.00
4505;DHT22;2265;48.794;9.520;2022-09-06T09:40:31;25.60;98.00
4505;DHT22;2265;48.794;9.520;2022-09-06T09:43:11;25.60;98.00
4505;DHT22;2265;48.794;9.520;2022-09-06T09:45:40;25.60;98.00
4505;DHT22;2265;48.794;9.520;2022-09-06T09:48:20;25.70;98.00
4505;DHT22;2265;48.794;9.520;2022-09-06T09:50:51;25.90;98.00
4505;DHT22;2265;48.794;9.520;2022-09-06T09:53:19;26.10;98.00
4505;DHT22;2265;48.794;9.520;2022-09-06T09:55:48;26.30;98.00
4505;DHT22;2265;48.794;9.520;2022-09-06T09:58:29;26.60;98.00
4505;DHT22;2265;48.794;9.520;2022-09-06T10:01:16;26.80;98.00
4505;DHT22;2265;48.794;9.520;2022-09-06T10:03:44;27.10;98.00
4505;DHT22;2265;48.794;9.520;2022-09-06T10:06:13;27.30;98.00
4505;DHT22;2265;48.794;9.520;2022-09-06T10:08:42;27.40;98.00
4505;DHT22;2265;48.794;9.520;2022-09-06T10:11:13;27.60;97.50
4505;DHT22;2265;48.794;9.520;2022-09-06T10:13:40;27.80;98.00
4505;DHT22;2265;48.794;9.520;2022-09-06T10:16:14;28.10;97.30
4505;DHT22;2265;48.794;9.520;2022-09-06T10:18:42;28.40;95.90
4505;DHT22;2265;48.794;9.520;2022-09-06T10:21:12;28.40;94.80
4505;DHT22;2265;48.794;9.520;2022-09-06T10:23:55;28.60;95.20
4505;DHT22;2265;48.794;9.520;2022-09-06T10:26:31;28.60;94.00
4505;DHT22;2265;48.794;9.520;2022-09-06T10:29:03;28.90;94.80
4505;DHT22;2265;48.794;9.520;2022-09-06T10:31:58;29.20;95.00
4505;DHT22;2265;48.794;9.520;2022-09-06T10:34:48;29.10;92.60
4505;DHT22;2265;48.794;9.520;2022-09-06T10:37:28;29.30;93.20
4505;DHT22;2265;48.794;9.520;2022-09-06T10:40:05;29.30;91.90
4505;DHT22;2265;48.794;9.520;2022-09-06T10:42:39;29.00;92.60
4505;DHT22;2265;48.794;9.520;2022-09-06T10:45:27;28.90;93.30
4505;DHT22;2265;48.794;9.520;2022-09-06T10:47:57;29.00;92.40
4505;DHT22;2265;48.794;9.520;2022-09-06T10:50:38;29.20;92.70
4505;DHT22;2265;48.794;9.520;2022-09-06T10:53:15;29.50;92.40
4505;DHT22;2265;48.794;9.520;2022-09-06T10:55:48;29.80;92.00
4505;DHT22;2265;48.794;9.520;2022-09-06T10:58:23;30.00;89.70
4505;DHT22;2265;48.794;9.520;2022-09-06T11:00:52;30.00;90.80
4505;DHT22;2265;48.794;9.520;2022-09-06T11:03:26;29.90;91.50
4505;DHT22;2265;48.794;9.520;2022-09-06T11:06:02;29.80;90.60
4505;DHT22;2265;48.794;9.520;2022-09-06T11:08:39;29.50;92.50
4505;DHT22;2265;48.794;9.520;2022-09-06T11:11:15;29.50;92.00
4505;DHT22;2265;48.794;9.520;2022-09-06T11:13:42;29.20;91.60
4505;DHT22;2265;48.794;9.520;2022-09-06T11:16:15;28.90;92.50
4505;DHT22;2265;48.794;9.520;2022-09-06T11:18:48;28.80;92.00
4505;DHT22;2265;48.794;9.520;2022-09-06T11:21:34;28.70;93.00
4505;DHT22;2265;48.794;9.520;2022-09-06T11:24:11;28.60;93.30
4505;DHT22;2265;48.794;9.520;2022-09-06T11:26:43;28.60;92.50
4505;DHT22;2265;48.794;9.520;2022-09-06T11:29:17;28.40;92.10
4505;DHT22;2265;48.794;9.520;2022-09-06T11:31:51;28.40;92.70
4505;DHT22;2265;48.794;9.520;2022-09-06T11:34:21;28.60;93.10
4505;DHT22;2265;48.794;9.520;2022-09-06T11:36:50;28.70;92.50
4505;DHT22;2265;48.794;9.520;2022-09-06T11:39:27;28.70;92.30
4505;DHT22;2265;48.794;9.520;2022-09-06T11:41:55;28.60;93.10
4505;DHT22;2265;48.794;9.520;2022-09-06T11:45:12;28.50;92.60
4505;DHT22;2265;48.794;9.520;2022-09-06T11:47:43;28.50;92.30
4505;DHT22;2265;48.794;9.520;2022-09-06T11:50:22;28.40;92.30
4505;DHT22;2265;48.794;9.520;2022-09-06T11:52:59;28.50;93.30
4505;DHT22;2265;48.794;9.520;2022-09-06T11:55:43;28.70;94.20
4505;DHT22;2265;48.794;9.520;2022-09-06T11:58:21;28.90;92.90
4505;DHT22;2265;48.794;9.520;2022-09-06T12:04:05;29.30;91.70
4505;DHT22;2265;48.794;9.520;2022-09-06T12:06:34;29.70;91.30
4505;DHT22;2265;48.794;9.520;2022-09-06T12:09:36;29.90;91.00
4505;DHT22;2265;48.794;9.520;2022-09-06T12:12:05;30.00;91.00
4505;DHT22;2265;48.794;9.520;2022-09-06T12:14:35;30.00;89.50
4505;DHT22;2265;48.794;9.520;2022-09-06T12:17:23;30.10;90.60
4505;DHT22;2265;48.794;9.520;2022-09-06T12:20:04;30.60;89.40
4505;DHT22;2265;48.794;9.520;2022-09-06T12:22:51;31.00;87.90
4505;DHT22;2265;48.794;9.520;2022-09-06T12:25:52;31.60;86.50
4505;DHT22;2265;48.794;9.520;2022-09-06T12:28:31;32.20;85.80
4505;DHT22;2265;48.794;9.520;2022-09-06T12:30:59;32.40;83.50
4505;DHT22;2265;48.794;9.520;2022-09-06T12:33:30;32.60;84.00
4505;DHT22;2265;48.794;9.520;2022-09-06T12:36:14;32.90;83.30
4505;DHT22;2265;48.794;9.520;2022-09-06T12:38:53;32.60;81.50
4505;DHT22;2265;48.794;9.520;2022-09-06T12:41:23;32.30;82.00
4505;DHT22;2265;48.794;9.520;2022-09-06T12:43:50;32.50;83.20
4505;DHT22;2265;48.794;9.520;2022-09-06T12:46:20;32.60;82.60
4505;DHT22;2265;48.794;9.520;2022-09-06T12:49:03;32.50;81.20
4505;DHT22;2265;48.794;9.520;2022-09-06T12:51:31;32.70;82.10
4505;DHT22;2265;48.794;9.520;2022-09-06T12:54:00;33.10;81.20
4505;DHT22;2265;48.794;9.520;2022-09-06T12:56:32;33.20;79.90
4505;DHT22;2265;48.794;9.520;2022-09-06T12:59:18;33.20;80.50
4505;DHT22;2265;48.794;9.520;2022-09-06T13:01:51;32.70;80.80
4505;DHT22;2265;48.794;9.520;2022-09-06T13:04:26;32.60;80.00
4505;DHT22;2265;48.794;9.520;2022-09-06T13:06:58;31.80;80.10
4505;DHT22;2265;48.794;9.520;2022-09-06T13:09:27;31.40;82.80
4505;DHT22;2265;48.794;9.520;2022-09-06T13:12:02;31.20;83.40
4505;DHT22;2265;48.794;9.520;2022-09-06T13:14:31;30.90;83.80
4505;DHT22;2265;48.794;9.520;2022-09-06T13:17:00;30.60;84.60
4505;DHT22;2265;48.794;9.520;2022-09-06T13:19:32;30.20;85.40
4505;DHT22;2265;48.794;9.520;2022-09-06T13:22:01;29.90;86.90
4505;DHT22;2265;48.794;9.520;2022-09-06T13:24:43;29.70;87.90
4505;DHT22;2265;48.794;9.520;2022-09-06T13:27:34;29.30;87.60
4505;DHT22;2265;48.794;9.520;2022-09-06T13:30:08;29.00;86.20
4505;DHT22;2265;48.794;9.520;2022-09-06T13:32:44;28.70;86.70
4505;DHT22;2265;48.794;9.520;2022-09-06T13:35:21;28.70;87.80
4505;DHT22;2265;48.794;9.520;2022-09-06T13:37:52;28.60;87.70
4505;DHT22;2265;48.794;9.520;2022-09-06T13:40:39;28.60;87.60
4505;DHT22;2265;48.794;9.520;2022-09-06T13:43:10;28.50;89.50
4505;DHT22;2265;48.794;9.520;2022-09-06T13:45:39;28.40;89.80
4505;DHT22;2265;48.794;9.520;2022-09-06T13:48:06;28.20;91.40
4505;DHT22;2265;48.794;9.520;2022-09-06T13:50:33;28.00;93.50
4505;DHT22;2265;48.794;9.520;2022-09-06T13:53:01;27.90;94.10
4505;DHT22;2265;48.794;9.520;2022-09-06T13:55:31;27.90;96.00
4505;DHT22;2265;48.794;9.520;2022-09-06T13:57:58;27.80;96.30
4505;DHT22;2265;48.794;9.520;2022-09-06T14:00:27;27.80;97.50
4505;DHT22;2265;48.794;9.520;2022-09-06T14:02:54;27.80;98.00
4505;DHT22;2265;48.794;9.520;2022-09-06T14:05:22;27.70;98.00
4505;DHT22;2265;48.794;9.520;2022-09-06T14:07:51;27.80;97.60
4505;DHT22;2265;48.794;9.520;2022-09-06T14:10:18;27.80;94.20
4505;DHT22;2265;48.794;9.520;2022-09-06T14:12:48;27.70;93.80
4505;DHT22;2265;48.794;9.520;2022-09-06T14:15:16;27.90;94.90
4505;DHT22;2265;48.794;9.520;2022-09-06T14:17:45;27.90;95.80
4505;DHT22;2265;48.794;9.520;2022-09-06T14:20:12;27.90;98.00
4505;DHT22;2265;48.794;9.520;2022-09-06T14:22:39;28.10;98.00
4505;DHT22;2265;48.794;9.520;2022-09-06T14:25:07;28.10;98.00
4505;DHT22;2265;48.794;9.520;2022-09-06T14:27:35;28.00;98.00
4505;DHT22;2265;48.794;9.520;2022-09-06T14:30:03;28.00;97.60
4505;DHT22;2265;48.794;9.520;2022-09-06T14:32:30;28.10;97.60
4505;DHT22;2265;48.794;9.520;2022-09-06T14:34:58;28.20;96.10
4505;DHT22;2265;48.794;9.520;2022-09-06T14:37:26;28.50;98.00
4505;DHT22;2265;48.794;9.520;2022-09-06T14:40:27;28.70;98.00
4505;DHT22;2265;48.794;9.520;2022-09-06T14:42:55;28.60;98.00
4505;DHT22;2265;48.794;9.520;2022-09-06T14:45:22;28.70;97.80
4505;DHT22;2265;48.794;9.520;2022-09-06T14:47:50;28.80;94.30
4505;DHT22;2265;48.794;9.520;2022-09-06T14:50:18;28.70;91.10
4505;DHT22;2265;48.794;9.520;2022-09-06T14:52:46;28.50;90.00
4505;DHT22;2265;48.794;9.520;2022-09-06T14:55:14;28.40;97.80
4505;DHT22;2265;48.794;9.520;2022-09-06T14:57:44;28.30;98.00
4505;DHT22;2265;48.794;9.520;2022-09-06T15:00:12;28.20;98.00
4505;DHT22;2265;48.794;9.520;2022-09-06T15:02:39;28.10;95.60
4505;DHT22;2265;48.794;9.520;2022-09-06T15:05:08;28.00;97.60
4505;DHT22;2265;48.794;9.520;2022-09-06T15:07:37;27.90;98.00
4505;DHT22;2265;48.794;9.520;2022-09-06T15:10:06;27.90;98.00
4505;DHT22;2265;48.794;9.520;2022-09-06T15:12:33;27.90;98.00
4505;DHT22;2265;48.794;9.520;2022-09-06T15:15:00;27.80;97.60
4505;DHT22;2265;48.794;9.520;2022-09-06T15:17:27;27.80;97.10
4505;DHT22;2265;48.794;9.520;2022-09-06T15:19:55;27.80;97.00
4505;DHT22;2265;48.794;9.520;2022-09-06T15:22:22;27.70;98.00
4505;DHT22;2265;48.794;9.520;2022-09-06T15:24:51;27.60;98.00
4505;DHT22;2265;48.794;9.520;2022-09-06T15:27:18;27.60;98.00
4505;DHT22;2265;48.794;9.520;2022-09-06T15:29:45;27.50;98.00
4505;DHT22;2265;48.794;9.520;2022-09-06T15:32:12;27.50;98.00
4505;DHT22;2265;48.794;9.520;2022-09-06T15:34:40;27.50;98.00
4505;DHT22;2265;48.794;9.520;2022-09-06T15:37:07;27.70;98.00
4505;DHT22;2265;48.794;9.520;2022-09-06T15:39:34;28.30;98.00
4505;DHT22;2265;48.794;9.520;2022-09-06T15:42:03;29.00;95.70
4505;DHT22;2265;48.794;9.520;2022-09-06T15:44:30;29.80;91.90
4505;DHT22;2265;48.794;9.520;2022-09-06T15:46:58;30.30;88.50
4505;DHT22;2265;48.794;9.520;2022-09-06T15:49:28;30.60;88.10
4505;DHT22;2265;48.794;9.520;2022-09-06T15:51:56;30.90;86.10
4505;DHT22;2265;48.794;9.520;2022-09-06T15:54:26;31.20;86.50
4505;DHT22;2265;48.794;9.520;2022-09-06T15:57:09;31.30;85.80
4505;DHT22;2265;48.794;9.520;2022-09-06T15:59:36;31.50;85.80
4505;DHT22;2265;48.794;9.520;2022-09-06T16:02:04;31.20;85.20
4505;DHT22;2265;48.794;9.520;2022-09-06T16:04:32;30.90;86.10
4505;DHT22;2265;48.794;9.520;2022-09-06T16:06:59;30.90;85.70
4505;DHT22;2265;48.794;9.520;2022-09-06T16:09:27;30.70;85.20
4505;DHT22;2265;48.794;9.520;2022-09-06T16:11:55;30.50;86.30
4505;DHT22;2265;48.794;9.520;2022-09-06T16:14:23;30.30;86.70
4505;DHT22;2265;48.794;9.520;2022-09-06T16:16:52;29.90;87.30
4505;DHT22;2265;48.794;9.520;2022-09-06T16:19:21;29.50;88.60
4505;DHT22;2265;48.794;9.520;2022-09-06T16:21:48;29.20;91.20
4505;DHT22;2265;48.794;9.520;2022-09-06T16:24:16;29.00;94.70
4505;DHT22;2265;48.794;9.520;2022-09-06T16:26:45;28.80;96.00
4505;DHT22;2265;48.794;9.520;2022-09-06T16:29:14;28.50;97.70
4505;DHT22;2265;48.794;9.520;2022-09-06T16:31:44;28.30;98.00